Time;durP1;ratioP1;P1;durP2;ratioP2;P2;SDS_P1;SDS_P2;PMS_P1;PMS_P2;Temp;Humidity;BMP_temperature;BMP_pressure;BME280_temperature;BME280_humidity;BME280_pressure;Samples;Min_cycle;Max_cycle;Signal;HPM_P1;HPM_P2
2020/12/30 00:01:05;;;;;;;17.10;10.98;;;;;;;2.31;90.40;97788.74;1795534;78;21829;-66
2020/12/30 00:03:35;;;;;;;16.77;11.15;;;;;;;2.32;90.37;97787.83;1793085;78;21107;-66
2020/12/30 00:06:05;;;;;;;15.95;10.85;;;;;;;2.29;90.16;97799.55;1795777;78;21031;-66
2020/12/30 00:08:33;;;;;;;14.80;11.22;;;;;;;2.27;90.14;97801.38;1799370;78;21088;-66
2020/12/30 00:11:02;;;;;;;16.10;10.60;;;;;;;2.24;90.17;97809.22;1787591;78;21107;-65
2020/12/30 00:13:30;;;;;;;14.65;10.88;;;;;;;2.21;90.10;97811.92;1794221;78;21639;-66
2020/12/30 00:15:58;;;;;;;17.37;10.53;;;;;;;2.17;90.08;97816.84;1794401;78;21538;-66
2020/12/30 00:18:26;;;;;;;14.10;10.60;;;;;;;2.15;90.17;97825.08;1797611;78;21617;-66
2020/12/30 00:20:53;;;;;;;17.00;11.35;;;;;;;2.13;90.17;97821.72;1790594;79;20981;-66
2020/12/30 00:23:20;;;;;;;14.33;10.50;;;;;;;2.13;90.20;97827.73;1780914;78;21148;-65
2020/12/30 00:25:47;;;;;;;13.83;10.35;;;;;;;2.10;90.13;97832.16;1796588;79;21209;-66
2020/12/30 00:28:14;;;;;;;12.80;9.90;;;;;;;2.08;90.19;97833.98;1790786;78;21021;-66
2020/12/30 00:30:41;;;;;;;11.88;9.30;;;;;;;2.09;90.23;97835.64;1788837;79;21511;-66
2020/12/30 00:33:08;;;;;;;11.97;8.80;;;;;;;2.06;90.03;97839.64;1794885;78;21017;-66
2020/12/30 00:35:35;;;;;;;11.25;9.03;;;;;;;1.99;89.98;97841.20;1792401;78;21143;-66
2020/12/30 00:38:03;;;;;;;10.03;8.73;;;;;;;1.93;89.97;97846.61;1784502;79;21734;-66
2020/12/30 00:40:30;;;;;;;10.80;8.50;;;;;;;1.84;89.96;97845.69;1791051;78;21621;-66
2020/12/30 00:42:59;;;;;;;12.05;8.25;;;;;;;1.79;89.82;97846.33;1789285;79;21514;-66
2020/12/30 00:45:26;;;;;;;8.93;7.17;;;;;;;1.66;89.73;97856.77;1787066;78;21546;-66
2020/12/30 00:47:55;;;;;;;9.75;7.92;;;;;;;1.58;89.86;97863.95;1794227;79;20980;-66
2020/12/30 00:50:22;;;;;;;12.40;8.35;;;;;;;1.48;89.90;97864.76;1797156;78;21649;-66
2020/12/30 00:52:49;;;;;;;11.22;8.68;;;;;;;1.39;89.83;97866.42;1798041;77;20989;-65
2020/12/30 00:55:18;;;;;;;12.18;8.08;;;;;;;1.29;90.02;97878.36;1834217;77;20914;-66
2020/12/30 00:57:45;;;;;;;10.60;7.17;;;;;;;1.29;90.36;97885.25;1832491;76;21009;-66
2020/12/30 01:00:12;;;;;;;10.15;7.22;;;;;;;1.34;90.52;97878.16;1837596;77;21199;-66
2020/12/30 01:02:39;;;;;;;9.68;7.17;;;;;;;1.38;90.51;97887.45;1845776;77;22561;-65
2020/12/30 01:05:06;;;;;;;9.43;5.92;;;;;;;1.43;90.48;97895.83;1831168;77;21041;-65
2020/12/30 01:07:33;;;;;;;8.45;5.97;;;;;;;1.40;90.25;97885.66;1841732;77;20935;-66
2020/12/30 01:10:00;;;;;;;7.83;6.08;;;;;;;1.34;90.03;97881.59;1839518;77;21052;-66
2020/12/30 01:12:27;;;;;;;8.23;6.30;;;;;;;1.27;89.91;97889.61;1836723;77;21566;-66
2020/12/30 01:14:54;;;;;;;7.42;5.70;;;;;;;1.18;89.89;97879.69;1839249;77;21139;-66
2020/12/30 01:17:21;;;;;;;8.68;5.33;;;;;;;1.10;89.91;97887.69;1852212;76;21582;-67
2020/12/30 01:19:50;;;;;;;11.05;5.58;;;;;;;1.02;89.93;97893.11;1831659;77;20957;-66
2020/12/30 01:22:17;;;;;;;7.33;5.87;;;;;;;0.96;90.04;97885.64;1834338;77;21558;-67
2020/12/30 01:24:44;;;;;;;6.05;5.25;;;;;;;0.88;90.02;97883.35;1837397;77;21119;-66
2020/12/30 01:27:11;;;;;;;8.08;5.60;;;;;;;0.84;90.01;97898.92;1830199;77;21823;-66
2020/12/30 01:29:38;;;;;;;6.12;4.90;;;;;;;0.76;90.00;97903.54;1840584;77;21040;-66
2020/12/30 01:32:05;;;;;;;7.97;5.37;;;;;;;0.67;90.00;97898.27;1829543;77;21072;-66
2020/12/30 01:34:32;;;;;;;7.17;5.28;;;;;;;0.64;90.10;97899.66;1841002;76;21593;-66
2020/12/30 01:36:59;;;;;;;7.65;5.15;;;;;;;0.57;90.09;97906.77;1841921;77;21049;-66
2020/12/30 01:39:26;;;;;;;6.22;4.80;;;;;;;0.52;90.11;97902.23;1830147;77;21646;-67
2020/12/30 01:41:53;;;;;;;5.22;4.72;;;;;;;0.46;90.10;97905.48;1830156;76;21084;-66
2020/12/30 01:44:20;;;;;;;8.08;5.47;;;;;;;0.41;90.17;97915.90;1845246;77;21040;-66
2020/12/30 01:46:48;;;;;;;6.50;4.80;;;;;;;0.38;90.18;97926.28;1848211;77;21028;-66
2020/12/30 01:49:19;;;;;;;9.45;4.92;;;;;;;0.35;90.21;97925.10;1837791;77;21107;-66
2020/12/30 01:51:49;;;;;;;8.33;4.85;;;;;;;0.32;90.17;97927.33;1848999;77;21634;-66
2020/12/30 01:54:18;;;;;;;5.78;4.47;;;;;;;0.31;90.28;97937.64;1839746;77;21182;-67
2020/12/30 01:56:47;;;;;;;7.72;4.12;;;;;;;0.33;90.51;97932.02;1822099;77;20977;-67
2020/12/30 01:59:18;;;;;;;5.00;4.35;;;;;;;0.38;90.58;97942.52;1834397;77;20980;-66
2020/12/30 02:02:04;;;;;;;5.47;4.37;;;;;;;0.45;90.61;97930.32;1823486;77;22629;-66
2020/12/30 02:04:53;;;;;;;7.00;4.70;;;;;;;0.50;90.53;97937.84;1828675;77;21273;-66
2020/12/30 02:07:23;;;;;;;6.97;4.85;;;;;;;0.52;90.41;97939.47;1840015;77;21554;-66
2020/12/30 02:09:55;;;;;;;7.55;4.45;;;;;;;0.53;90.37;97928.30;1828566;77;21161;-66
2020/12/30 02:12:22;;;;;;;5.97;4.50;;;;;;;0.52;90.32;97924.06;1834079;77;20985;-66
2020/12/30 02:14:50;;;;;;;5.65;4.55;;;;;;;0.51;90.29;97917.27;1842063;77;21037;-66
2020/12/30 02:17:17;;;;;;;5.78;4.58;;;;;;;0.50;90.25;97919.41;1836825;77;22578;-66
2020/12/30 02:19:46;;;;;;;4.70;4.20;;;;;;;0.48;90.27;97919.94;1819635;77;21239;-66
2020/12/30 02:22:22;;;;;;;6.33;4.40;;;;;;;0.46;90.31;97926.84;1845958;77;20961;-66
2020/12/30 02:24:50;;;;;;;6.30;4.72;;;;;;;0.44;90.27;97920.92;1835070;77;20934;-66
2020/12/30 02:27:18;;;;;;;4.28;3.83;;;;;;;0.40;90.27;97927.07;1823706;77;20981;-67
2020/12/30 02:29:45;;;;;;;4.53;4.03;;;;;;;0.38;90.23;97929.68;1843909;77;21562;-66
2020/12/30 02:32:13;;;;;;;9.70;4.58;;;;;;;0.36;90.28;97930.62;1821781;76;20982;-67
2020/12/30 02:34:41;;;;;;;5.10;4.35;;;;;;;0.35;90.30;97928.95;1828670;77;21025;-66
2020/12/30 02:37:08;;;;;;;4.45;4.05;;;;;;;0.35;90.25;97931.52;1829998;77;21194;-66
2020/12/30 02:39:36;;;;;;;5.28;4.78;;;;;;;0.33;90.28;97938.43;1836901;77;21143;-66
2020/12/30 02:42:04;;;;;;;5.00;4.33;;;;;;;0.31;90.28;97946.20;1837892;77;21534;-66
2020/12/30 02:44:31;;;;;;;4.25;3.85;;;;;;;0.32;90.29;97954.73;1824557;77;21001;-66
2020/12/30 02:46:58;;;;;;;4.70;4.30;;;;;;;0.34;90.37;97958.09;1829908;77;20914;-66
2020/12/30 02:49:25;;;;;;;5.65;4.17;;;;;;;0.40;90.51;97968.16;1828870;77;21500;-65
2020/12/30 02:51:52;;;;;;;5.35;4.78;;;;;;;0.48;90.53;97975.15;1841688;77;21358;-66
2020/12/30 02:54:20;;;;;;;4.85;4.22;;;;;;;0.56;90.49;97973.58;1837344;77;23375;-66
2020/12/30 02:56:49;;;;;;;4.65;3.98;;;;;;;0.61;90.42;97978.95;1836571;77;21047;-66
2020/12/30 02:59:16;;;;;;;4.87;4.35;;;;;;;0.68;90.40;97975.73;1834842;76;21078;-66
2020/12/30 03:01:43;;;;;;;5.58;4.37;;;;;;;0.75;90.34;97981.48;1840451;76;21151;-66
2020/12/30 03:04:11;;;;;;;6.10;4.45;;;;;;;0.80;90.28;97982.16;1838719;76;21013;-66
2020/12/30 03:06:38;;;;;;;4.92;3.45;;;;;;;0.86;90.24;97987.08;1824536;77;21610;-65
2020/12/30 03:09:07;;;;;;;4.42;3.67;;;;;;;0.89;90.13;97993.39;1833763;76;26652;-66
2020/12/30 03:11:34;;;;;;;5.28;4.05;;;;;;;0.92;90.17;97987.30;1834642;77;21004;-66
2020/12/30 03:14:01;;;;;;;5.22;3.92;;;;;;;0.97;90.17;97996.98;1833259;76;21127;-66
2020/12/30 03:16:28;;;;;;;5.55;4.25;;;;;;;1.01;90.21;97992.97;1837303;77;21605;-65
2020/12/30 03:18:55;;;;;;;5.25;4.70;;;;;;;1.05;90.11;97990.66;1847293;77;21637;-66
2020/12/30 03:21:22;;;;;;;6.03;4.28;;;;;;;1.10;90.10;97987.48;1831951;76;21538;-66
2020/12/30 03:23:49;;;;;;;5.35;3.58;;;;;;;1.15;90.05;97992.88;1843333;76;21059;-66
2020/12/30 03:26:16;;;;;;;4.05;3.65;;;;;;;1.18;89.97;97989.77;1834042;77;21166;-66
2020/12/30 03:28:43;;;;;;;6.03;4.37;;;;;;;1.21;89.96;97984.97;1844588;76;21024;-66
2020/12/30 03:31:11;;;;;;;4.67;4.17;;;;;;;1.21;89.84;97990.11;1832486;77;21647;-66
2020/12/30 03:33:38;;;;;;;4.75;4.28;;;;;;;1.21;89.87;97995.25;1846793;76;21044;-67
2020/12/30 03:36:05;;;;;;;5.55;4.22;;;;;;;1.23;89.93;98006.30;1842237;76;20989;-65
2020/12/30 03:38:32;;;;;;;4.75;3.95;;;;;;;1.24;89.88;98004.14;1847365;76;21091;-66
2020/12/30 03:40:59;;;;;;;4.55;3.80;;;;;;;1.27;89.88;98010.45;1835440;77;21082;-66
2020/12/30 03:43:26;;;;;;;4.22;3.62;;;;;;;1.27;89.90;98009.99;1846449;77;21663;-66
2020/12/30 03:45:53;;;;;;;5.53;3.60;;;;;;;1.30;89.89;98016.30;1836703;77;21352;-66
2020/12/30 03:48:20;;;;;;;3.90;3.52;;;;;;;1.34;89.96;98027.31;1838158;77;21056;-66
2020/12/30 03:50:47;;;;;;;5.65;4.00;;;;;;;1.38;89.89;98031.45;1845886;77;21297;-66
2020/12/30 03:53:14;;;;;;;5.70;4.05;;;;;;;1.41;89.90;98035.20;1829153;77;21126;-66
2020/12/30 03:55:41;;;;;;;;;;;;;;;1.44;89.87;98027.82;1828655;77;21718;-66
2020/12/30 03:58:10;;;;;;;3.37;3.05;;;;;;;1.46;89.76;98023.02;1845765;76;20177;-66
2020/12/30 04:00:38;;;;;;;4.53;3.52;;;;;;;1.49;89.84;98033.19;1838339;77;20918;-65
2020/12/30 04:03:05;;;;;;;5.00;3.22;;;;;;;1.53;89.88;98030.87;1842092;76;21056;-66
2020/12/30 04:05:32;;;;;;;6.12;3.92;;;;;;;1.56;89.81;98042.33;1830298;76;21036;-66
2020/12/30 04:07:59;;;;;;;4.50;3.72;;;;;;;1.58;89.66;98040.16;1826427;76;22229;-66
2020/12/30 04:10:26;;;;;;;4.62;3.52;;;;;;;1.54;89.48;98032.56;1837812;77;21040;-65
2020/12/30 04:12:53;;;;;;;5.22;4.22;;;;;;;1.45;89.36;98027.74;1841855;77;21234;-66
2020/12/30 04:15:20;;;;;;;4.95;4.05;;;;;;;1.38;89.34;98020.34;1834506;76;20968;-65
2020/12/30 04:17:47;;;;;;;4.50;3.75;;;;;;;1.27;89.33;98025.88;1843243;77;21139;-67
2020/12/30 04:20:15;;;;;;;8.23;3.95;;;;;;;1.18;89.33;98028.80;1836998;77;21629;-66
2020/12/30 04:22:44;;;;;;;4.17;3.75;;;;;;;1.08;89.37;98029.10;1843290;76;21029;-66
2020/12/30 04:25:13;;;;;;;6.08;3.17;;;;;;;0.98;89.39;98023.92;1842475;77;21091;-65
2020/12/30 04:27:40;;;;;;;4.42;3.75;;;;;;;0.89;89.41;98031.93;1842574;76;21039;-66
2020/12/30 04:30:06;;;;;;;5.33;3.40;;;;;;;0.78;89.45;98027.61;1844866;77;21830;-66
2020/12/30 04:32:33;;;;;;;4.85;3.35;;;;;;;0.71;89.52;98032.59;1843809;77;21616;-66
2020/12/30 04:35:01;;;;;;;4.08;3.20;;;;;;;0.64;89.61;98022.95;1830498;76;21021;-66
2020/12/30 04:37:28;;;;;;;4.40;3.60;;;;;;;0.57;89.58;98021.05;1834822;77;21826;-65
2020/12/30 04:39:55;;;;;;;3.77;3.30;;;;;;;0.53;89.72;98025.88;1792318;78;21008;-67
2020/12/30 04:42:34;;;;;;;5.15;3.52;;;;;;;0.51;89.83;98022.55;1796372;78;21151;-66
2020/12/30 04:45:06;;;;;;;4.42;3.90;;;;;;;0.49;89.78;98020.47;1789020;79;21273;-66
2020/12/30 04:47:34;;;;;;;3.80;3.40;;;;;;;0.42;89.71;98025.41;1791684;79;21581;-66
2020/12/30 04:50:04;;;;;;;4.30;3.33;;;;;;;0.37;89.71;98022.17;1796981;78;21573;-65
2020/12/30 04:52:32;;;;;;;4.60;3.72;;;;;;;0.32;89.72;98027.91;1790828;78;21617;-65
2020/12/30 04:55:02;;;;;;;4.30;3.47;;;;;;;0.26;89.69;98034.52;1804699;79;20985;-65
2020/12/30 04:57:55;;;;;;;4.62;3.50;;;;;;;0.23;89.74;98037.20;1772285;79;21631;-66
2020/12/30 05:00:24;;;;;;;4.37;3.77;;;;;;;0.18;89.75;98034.77;1791623;79;20970;-65
2020/12/30 05:02:55;;;;;;;5.17;3.80;;;;;;;0.13;89.82;98043.89;1786704;79;20972;-65
2020/12/30 05:05:23;;;;;;;5.55;4.35;;;;;;;0.11;89.80;98053.39;1790875;79;21048;-65
2020/12/30 05:07:53;;;;;;;4.97;3.92;;;;;;;0.06;89.72;98051.41;1799922;78;21649;-65
2020/12/30 05:10:20;;;;;;;6.70;4.65;;;;;;;0.01;89.73;98049.42;1779274;79;21264;-65
2020/12/30 05:12:47;;;;;;;5.67;4.42;;;;;;;-0.04;89.68;98044.88;1811658;78;21570;-66
2020/12/30 05:15:14;;;;;;;4.65;4.25;;;;;;;-0.09;89.64;98046.73;1808968;78;21080;-66
2020/12/30 05:17:41;;;;;;;5.53;4.03;;;;;;;-0.15;89.62;98057.19;1802445;78;21669;-65
2020/12/30 05:20:09;;;;;;;5.83;4.22;;;;;;;-0.21;89.59;98054.38;1795468;78;26693;-65
2020/12/30 05:22:37;;;;;;;5.12;3.92;;;;;;;-0.28;89.52;98059.27;1791371;78;21205;-65
2020/12/30 05:25:07;;;;;;;4.67;4.12;;;;;;;-0.33;89.75;98059.88;1797487;79;21259;-65
2020/12/30 05:27:36;;;;;;;5.05;4.33;;;;;;;-0.39;89.84;98054.49;1804238;78;20981;-65
2020/12/30 05:30:04;;;;;;;5.53;4.28;;;;;;;-0.39;89.83;98071.16;1811231;78;21041;-65
2020/12/30 05:32:36;;;;;;;;;;;;;;;-0.41;89.82;98076.77;1805459;79;21492;-65
2020/12/30 05:35:05;;;;;;;6.75;4.45;;;;;;;-0.44;89.88;98079.87;1796033;78;21202;-65
2020/12/30 05:37:34;;;;;;;7.67;4.33;;;;;;;-0.47;89.93;98085.93;1806933;78;21589;-65
2020/12/30 05:40:08;;;;;;;6.75;5.20;;;;;;;-0.48;89.98;98085.52;1800906;78;21168;-65
2020/12/30 05:42:44;;;;;;;5.92;5.10;;;;;;;-0.45;89.97;98085.42;1861461;75;22743;-64
2020/12/30 05:45:19;;;;;;;7.17;5.22;;;;;;;-0.49;90.00;98096.66;1838582;77;20898;-65
2020/12/30 05:47:52;;;;;;;6.15;4.75;;;;;;;-0.54;89.85;98107.48;1847975;77;22158;-64
2020/12/30 05:50:23;;;;;;;7.97;5.42;;;;;;;-0.55;89.95;98112.23;1837416;77;21582;-65
2020/12/30 05:52:52;;;;;;;6.08;5.00;;;;;;;-0.56;89.98;98113.95;1844879;77;21550;-65
2020/12/30 05:55:26;;;;;;;6.00;5.33;;;;;;;-0.58;89.99;98123.41;1837538;77;21010;-65
2020/12/30 05:57:53;;;;;;;8.25;5.65;;;;;;;-0.58;89.99;98128.53;1828123;77;20992;-64
2020/12/30 06:00:24;;;;;;;6.80;5.00;;;;;;;-0.62;89.96;98126.92;1837117;77;21200;-64
2020/12/30 06:02:51;;;;;;;6.42;5.40;;;;;;;-0.63;89.94;98138.52;1842082;77;21486;-66
2020/12/30 06:05:23;;;;;;;11.78;6.00;;;;;;;-0.64;90.03;98139.38;1834644;77;20977;-66
2020/12/30 06:07:53;;;;;;;7.62;5.90;;;;;;;-0.65;89.99;98138.98;1826135;76;21049;-64
2020/12/30 06:10:23;;;;;;;8.60;5.90;;;;;;;-0.69;89.92;98146.77;1851858;77;20977;-65
2020/12/30 06:15:34;;;;;;;8.10;5.87;;;;;;;-0.70;89.91;98144.23;1865577;75;22684;-65
2020/12/30 06:18:07;;;;;;;6.75;5.25;;;;;;;-0.75;90.00;98146.94;1849937;77;21578;-65
2020/12/30 06:20:40;;;;;;;6.62;5.42;;;;;;;-0.75;90.00;98153.79;1833127;77;21152;-65
2020/12/30 06:23:15;;;;;;;6.65;5.10;;;;;;;-0.77;90.01;98165.34;1828280;77;21273;-65
2020/12/30 06:25:47;;;;;;;9.75;5.25;;;;;;;-0.78;89.99;98164.96;1840903;76;20957;-65
2020/12/30 06:28:22;;;;;;;9.63;6.87;;;;;;;-0.80;89.99;98171.84;1843949;77;21016;-65
2020/12/30 06:30:51;;;;;;;12.45;7.72;;;;;;;-0.82;90.00;98167.19;1845321;77;20949;-65
2020/12/30 06:33:24;;;;;;;10.93;7.62;;;;;;;-0.83;90.04;98166.80;1838321;76;21302;-65
2020/12/30 06:35:55;;;;;;;12.98;8.58;;;;;;;-0.83;90.01;98177.05;1829760;76;21574;-66
2020/12/30 06:38:25;;;;;;;19.52;11.50;;;;;;;-0.85;90.03;98173.67;1833783;76;20965;-67
2020/12/30 06:41:00;;;;;;;20.10;9.38;;;;;;;-0.87;90.01;98180.55;1846793;76;21174;-67
2020/12/30 06:43:48;;;;;;;14.95;8.05;;;;;;;-0.89;89.98;98170.80;1844493;77;21569;-66
2020/12/30 06:46:27;;;;;;;15.15;8.05;;;;;;;-0.91;89.98;98182.81;1839858;76;21192;-66
2020/12/30 06:49:07;;;;;;;10.95;6.97;;;;;;;-0.92;90.04;98190.11;1836858;77;20994;-66
2020/12/30 06:51:47;;;;;;;10.30;6.25;;;;;;;-0.89;90.15;98190.02;1877864;75;23352;-65
2020/12/30 06:54:16;;;;;;;8.40;6.53;;;;;;;-0.93;90.12;98206.34;1878915;75;21048;-65
2020/12/30 06:56:46;;;;;;;7.72;6.10;;;;;;;-0.93;90.10;98216.59;1860101;75;21193;-65
2020/12/30 06:59:31;;;;;;;10.70;6.85;;;;;;;-0.96;90.02;98206.42;1879082;75;21088;-64
2020/12/30 07:02:04;;;;;;;9.28;6.15;;;;;;;-0.97;90.06;98225.25;1883216;75;21581;-65
2020/12/30 07:07:31;;;;;;;10.28;6.03;;;;;;;-0.94;90.14;98221.32;1824817;77;23328;-66
2020/12/30 07:09:58;;;;;;;9.35;6.42;;;;;;;-0.99;90.11;98227.00;1742318;81;21521;-66
2020/12/30 07:12:31;;;;;;;12.23;6.83;;;;;;;-0.97;90.17;98232.93;1739178;81;21273;-65
2020/12/30 07:14:58;;;;;;;10.40;7.45;;;;;;;-0.97;90.17;98232.93;1751180;80;21077;-65
2020/12/30 07:17:26;;;;;;;8.95;6.72;;;;;;;-0.98;90.07;98242.34;1713131;81;21768;-65
2020/12/30 07:19:54;;;;;;;10.78;7.20;;;;;;;-1.01;89.96;98242.42;1735596;81;21644;-65
2020/12/30 07:22:22;;;;;;;;;;;;;;;-1.03;89.95;98243.34;1729412;81;21136;-65
2020/12/30 07:24:56;;;;;;;11.03;7.25;;;;;;;-1.04;89.98;98246.75;1702788;82;21161;-66
2020/12/30 07:27:29;;;;;;;10.53;6.70;;;;;;;-1.06;90.02;98251.93;1741982;80;21048;-65
2020/12/30 07:30:06;;;;;;;11.08;7.28;;;;;;;-1.02;90.08;98250.13;1839941;77;22700;-65
2020/12/30 07:32:33;;;;;;;12.60;7.33;;;;;;;-1.06;90.09;98257.05;1811621;78;21040;-65
2020/12/30 07:35:03;;;;;;;9.18;6.28;;;;;;;-1.05;90.08;98257.89;1717458;81;21344;-65
2020/12/30 07:37:32;;;;;;;9.98;7.65;;;;;;;-1.03;90.14;98270.23;1768048;80;21180;-65
2020/12/30 07:39:59;;;;;;;10.48;6.92;;;;;;;-1.02;90.09;98262.94;1744131;81;21140;-65
2020/12/30 07:42:29;;;;;;;;;;;;;;;-1.01;90.03;98265.89;1748123;81;21626;-65
2020/12/30 07:44:57;;;;;;;11.95;7.12;;;;;;;-1.01;89.97;98267.17;1740523;81;20139;-65
2020/12/30 07:47:28;;;;;;;10.75;6.92;;;;;;;-1.03;89.95;98268.95;1751119;80;21309;-65
2020/12/30 07:50:04;;;;;;;13.08;7.87;;;;;;;-1.02;89.95;98276.58;1770920;80;20962;-65
2020/12/30 07:52:33;;;;;;;14.40;8.77;;;;;;;-1.02;89.95;98283.44;1750609;81;21675;-66
2020/12/30 07:55:00;;;;;;;12.33;8.15;;;;;;;-1.02;89.93;98283.44;1748318;81;21416;-66
2020/12/30 07:57:29;;;;;;;11.53;8.30;;;;;;;-1.03;89.90;98279.20;1741430;81;21038;-65
2020/12/30 07:59:57;;;;;;;12.78;8.18;;;;;;;-1.03;89.90;98284.33;1737953;81;21279;-66
2020/12/30 08:02:24;;;;;;;12.03;8.45;;;;;;;-1.02;89.93;98289.84;1739724;81;21671;-65
2020/12/30 08:05:01;;;;;;;11.43;8.48;;;;;;;-0.99;89.94;98293.61;1744405;81;21005;-66
2020/12/30 08:07:29;;;;;;;12.93;9.13;;;;;;;-0.96;89.94;98293.53;1743611;81;21629;-67
2020/12/30 08:09:56;;;;;;;14.03;9.55;;;;;;;-0.94;89.85;98300.75;1741612;81;21107;-67
2020/12/30 08:12:25;;;;;;;13.45;10.60;;;;;;;-0.94;89.83;98305.88;1755406;81;21652;-67
2020/12/30 08:14:53;;;;;;;15.05;9.55;;;;;;;-0.92;89.87;98300.28;1743580;81;21115;-66
2020/12/30 08:17:22;;;;;;;14.35;10.15;;;;;;;-0.88;89.91;98301.87;1747455;81;21017;-66
2020/12/30 08:19:52;;;;;;;14.65;11.78;;;;;;;-0.83;89.94;98300.05;1745308;81;21210;-66
2020/12/30 08:22:25;;;;;;;17.32;10.82;;;;;;;-0.77;89.92;98305.03;1738653;81;21127;-67
2020/12/30 08:24:54;;;;;;;18.57;10.55;;;;;;;-0.75;89.80;98307.13;1747855;81;21210;-66
2020/12/30 08:27:31;;;;;;;14.50;9.18;;;;;;;-0.74;89.79;98310.08;1740017;81;21009;-66
2020/12/30 08:30:04;;;;;;;14.93;8.65;;;;;;;-0.71;89.76;98311.28;1747380;81;21204;-66
2020/12/30 08:32:52;;;;;;;14.73;9.20;;;;;;;-0.72;89.70;98313.45;1742611;81;21785;-66
2020/12/30 08:35:25;;;;;;;12.90;9.33;;;;;;;-0.70;89.78;98321.95;1754577;81;20994;-66
2020/12/30 08:38:10;;;;;;;14.10;9.30;;;;;;;-0.66;89.76;98324.44;1752168;81;22196;-66
2020/12/30 08:40:39;;;;;;;11.60;7.50;;;;;;;-0.61;89.80;98323.89;1753373;81;21147;-66
2020/12/30 08:43:44;;;;;;;11.88;8.48;;;;;;;-0.56;89.82;98328.44;1773583;80;21092;-65
2020/12/30 08:46:23;;;;;;;12.23;8.68;;;;;;;-0.50;89.84;98327.03;1775819;79;21001;-67
2020/12/30 08:48:54;;;;;;;11.83;8.03;;;;;;;-0.42;89.85;98341.79;1776311;79;21072;-65
2020/12/30 08:51:33;;;;;;;11.40;7.67;;;;;;;-0.35;89.84;98338.17;1776346;80;21838;-66
2020/12/30 08:54:01;;;;;;;13.05;8.80;;;;;;;-0.29;89.83;98332.87;1749455;81;21080;-66
2020/12/30 08:56:28;;;;;;;13.00;7.95;;;;;;;-0.19;89.82;98340.36;1747520;81;21080;-66
2020/12/30 08:58:58;;;;;;;11.55;7.85;;;;;;;-0.13;89.73;98337.63;1772343;80;21044;-66
2020/12/30 09:01:30;;;;;;;11.90;8.95;;;;;;;-0.07;89.67;98337.47;1746414;81;21555;-67
2020/12/30 09:04:12;;;;;;;12.45;8.43;;;;;;;0.00;89.66;98340.28;1755249;80;21459;-67
2020/12/30 09:06:50;;;;;;;16.45;9.35;;;;;;;0.06;89.58;98343.96;1770184;80;21213;-67
2020/12/30 09:09:20;;;;;;;20.43;9.60;;;;;;;0.10;89.58;98340.41;1772112;80;21199;-67
2020/12/30 09:11:53;;;;;;;13.78;9.23;;;;;;;0.14;89.51;98345.88;1771398;80;21721;-65
2020/12/30 09:14:22;;;;;;;15.23;8.80;;;;;;;0.20;89.50;98338.00;1741831;81;21285;-66
2020/12/30 09:17:00;;;;;;;14.83;8.85;;;;;;;0.27;89.56;98346.81;1754890;80;21091;-66
2020/12/30 09:19:30;;;;;;;13.85;9.03;;;;;;;0.32;89.49;98338.55;1777609;80;21048;-66
2020/12/30 09:22:12;;;;;;;12.73;8.73;;;;;;;0.36;89.44;98341.41;1749557;80;21612;-66
2020/12/30 09:24:42;;;;;;;13.45;9.23;;;;;;;0.40;89.46;98337.45;1748952;81;20965;-67
2020/12/30 09:27:24;;;;;;;16.23;8.73;;;;;;;0.47;89.50;98338.55;1745633;80;21019;-67
2020/12/30 09:30:13;;;;;;;14.00;9.25;;;;;;;0.52;89.40;98340.55;1770915;80;21198;-66
2020/12/30 09:32:45;;;;;;;13.55;9.10;;;;;;;0.55;89.47;98332.30;1759855;80;21236;-66
2020/12/30 09:35:16;;;;;;;15.05;9.05;;;;;;;0.64;89.47;98336.33;1760332;80;21080;-66
2020/12/30 09:37:52;;;;;;;12.75;7.62;;;;;;;0.68;89.44;98333.25;1766534;80;20985;-66
2020/12/30 09:40:20;;;;;;;12.88;7.75;;;;;;;0.76;89.46;98332.58;1702448;82;21028;-66
2020/12/30 09:42:49;;;;;;;13.90;8.63;;;;;;;0.81;89.39;98334.13;1731781;82;22173;-66
2020/12/30 09:45:20;;;;;;;15.58;8.65;;;;;;;0.86;89.33;98332.23;1731557;82;21590;-66
2020/12/30 09:47:48;;;;;;;13.08;8.70;;;;;;;0.88;89.19;98332.20;1728394;82;21274;-67
2020/12/30 09:50:17;;;;;;;13.43;9.20;;;;;;;0.90;89.19;98329.15;1735376;82;21172;-67
2020/12/30 09:52:46;;;;;;;11.33;8.45;;;;;;;0.93;89.15;98329.05;1729856;81;21561;-66
2020/12/30 09:55:16;;;;;;;13.70;8.45;;;;;;;0.95;89.15;98324.69;1730228;82;21289;-66
2020/12/30 09:57:44;;;;;;;11.40;8.20;;;;;;;0.97;89.12;98329.34;1727087;82;21218;-65
2020/12/30 10:00:23;;;;;;;15.80;8.15;;;;;;;1.00;89.19;98331.81;1615076;87;21084;-66
2020/12/30 10:02:51;;;;;;;12.82;7.67;;;;;;;1.07;89.30;98330.75;1618652;87;21238;-67
2020/12/30 10:05:18;;;;;;;12.47;7.47;;;;;;;1.16;89.29;98331.35;1618337;87;22095;-66
2020/12/30 10:07:46;;;;;;;17.92;7.45;;;;;;;1.17;89.15;98327.88;1616627;87;21241;-66
2020/12/30 10:10:16;;;;;;;13.62;8.08;;;;;;;1.21;89.08;98332.05;1615636;87;21223;-66
2020/12/30 10:12:47;;;;;;;13.28;8.25;;;;;;;1.24;89.10;98329.39;1609752;87;21647;-66
2020/12/30 10:15:18;;;;;;;14.15;8.43;;;;;;;1.30;89.16;98330.47;1617246;87;20998;-67
2020/12/30 10:17:45;;;;;;;17.90;8.80;;;;;;;1.38;89.25;98337.50;1636162;85;21032;-67
2020/12/30 10:20:13;;;;;;;14.85;9.40;;;;;;;1.41;89.06;98332.25;1637399;86;22282;-66
2020/12/30 10:22:42;;;;;;;17.25;9.60;;;;;;;1.43;88.97;98330.48;1638910;85;21182;-66
2020/12/30 10:25:14;;;;;;;15.60;9.55;;;;;;;1.46;89.00;98330.38;1640151;85;21234;-67
2020/12/30 10:27:45;;;;;;;15.25;9.43;;;;;;;1.49;88.97;98330.27;1634854;86;21851;-67
2020/12/30 10:30:13;;;;;;;15.60;9.25;;;;;;;1.50;88.93;98326.80;1637193;86;21176;-67
2020/12/30 10:32:40;;;;;;;14.75;9.70;;;;;;;1.53;88.89;98320.27;1636050;86;22395;-66
2020/12/30 10:35:10;;;;;;;14.47;9.03;;;;;;;1.54;88.83;98315.53;1642538;85;21291;-66
2020/12/30 10:37:39;;;;;;;16.82;9.08;;;;;;;1.56;88.77;98313.72;1635884;86;21136;-66
2020/12/30 10:40:13;;;;;;;13.65;8.98;;;;;;;1.56;88.74;98312.44;1635586;86;21167;-67
2020/12/30 10:42:40;;;;;;;13.62;8.63;;;;;;;1.59;88.81;98310.66;1635419;86;21199;-66
2020/12/30 10:45:09;;;;;;;12.78;7.83;;;;;;;1.62;88.83;98305.41;1640055;85;21155;-66
2020/12/30 10:47:36;;;;;;;12.82;8.68;;;;;;;1.66;88.73;98308.30;1636560;85;21606;-66
2020/12/30 10:50:03;;;;;;;12.00;8.08;;;;;;;1.67;88.84;98304.81;1636958;86;21088;-66
2020/12/30 10:52:30;;;;;;;12.10;7.17;;;;;;;1.72;88.85;98301.65;1642031;86;20989;-66
2020/12/30 10:54:57;;;;;;;9.65;6.95;;;;;;;1.76;88.80;98300.63;1640332;85;21073;-65
2020/12/30 10:57:24;;;;;;;13.40;7.03;;;;;;;1.80;88.75;98298.37;1639536;85;21390;-66
2020/12/30 10:59:51;;;;;;;10.58;7.53;;;;;;;1.82;88.70;98305.59;1638352;86;21263;-66
2020/12/30 11:02:19;;;;;;;10.30;6.70;;;;;;;1.84;88.67;98293.49;1634908;86;21199;-66
2020/12/30 11:04:46;;;;;;;11.00;6.87;;;;;;;1.87;88.62;98298.53;1640626;86;26779;-66
2020/12/30 11:07:13;;;;;;;11.55;7.15;;;;;;;1.90;88.62;98293.73;1637618;85;21009;-66
2020/12/30 11:09:40;;;;;;;11.18;7.17;;;;;;;1.91;88.56;98293.69;1643099;86;22807;-66
2020/12/30 11:12:07;;;;;;;12.05;8.33;;;;;;;1.93;88.60;98289.33;1638189;85;21804;-67
2020/12/30 11:14:34;;;;;;;16.50;8.95;;;;;;;1.97;88.55;98292.17;1640492;85;21650;-66
2020/12/30 11:17:01;;;;;;;13.05;8.05;;;;;;;1.98;88.49;98288.70;1635903;85;21057;-66
2020/12/30 11:19:28;;;;;;;14.65;8.35;;;;;;;1.98;88.42;98284.84;1642219;85;21203;-67
2020/12/30 11:21:55;;;;;;;16.07;8.53;;;;;;;1.99;88.48;98281.39;1638602;85;21227;-67
2020/12/30 11:24:22;;;;;;;12.63;7.22;;;;;;;2.04;88.39;98277.34;1641627;85;21160;-66
2020/12/30 11:26:50;;;;;;;15.43;8.30;;;;;;;2.05;88.31;98274.34;1640428;85;21263;-66
2020/12/30 11:29:17;;;;;;;12.03;7.47;;;;;;;2.05;88.37;98275.63;1640380;85;21192;-66
2020/12/30 11:31:44;;;;;;;12.88;7.45;;;;;;;2.08;88.34;98274.23;1640404;85;21270;-66
2020/12/30 11:34:12;;;;;;;10.88;6.87;;;;;;;2.12;88.49;98278.36;1640855;85;21231;-67
2020/12/30 11:36:40;;;;;;;10.60;6.17;;;;;;;2.16;88.38;98277.38;1641617;86;21168;-66
2020/12/30 11:39:07;;;;;;;9.50;6.62;;;;;;;2.17;88.24;98276.47;1641462;85;21148;-66
2020/12/30 11:41:35;;;;;;;10.68;6.87;;;;;;;2.20;88.19;98272.48;1643278;85;21292;-66
2020/12/30 11:44:01;;;;;;;;;;;;;;;2.23;88.29;98280.09;1641996;85;21247;-66
2020/12/30 11:46:29;;;;;;;12.23;7.00;;;;;;;2.26;88.08;98278.70;1635903;85;21937;-67
2020/12/30 11:48:57;;;;;;;8.98;5.10;;;;;;;2.29;88.21;98277.30;1642028;85;20985;-67
2020/12/30 11:51:24;;;;;;;12.33;5.83;;;;;;;2.30;88.16;98272.55;1637467;85;21940;-68
2020/12/30 11:53:52;;;;;;;;;;;;;;;2.34;88.13;98275.39;1640745;85;21270;-66